Bainbridge Township, Ohio
Current Conditions -  °F | °C
As of 11:16 PM on Sunday 25 Jan 2015 (Local Time) from KPOV Reporting Station
Light Snow Light Snow  
Wind Chill:   Ceiling: 2600
Heat Index: 18°   Visibility: 2.5mi
Dew Point: 13°   Wind: 10mph
Humidity: 81%   Direction: 50°NE
Pressure: 29.84"   Gusts: NA
Location:  41.3913°N, 81.3197°W
Report Text: KPOV 260416Z AUTO 05009KT 2 1/2SM -SN SCT020 BKN026 OVC034 M08/M10 A2984 RMK AO2 T10761103
Loading
Personal Weather Stations






























Interactive Weather Map New forecast layout! Learn more

10-Day Weather Forecast

Advertisements
Track Severe Weather on mobile